Freedom, Ohio
Current Conditions -  °F | °C
As of 6:42 PM on Friday 19 Dec 2014 (Local Time) from KPOV Reporting Station
Overcast Overcast  
Wind Chill: 23°   Ceiling: 2400
Heat Index: 29°   Visibility: 10mi
Dew Point: 20°   Wind: 6mph
Humidity: 69%   Direction: 310°NW
Pressure: 30.25"   Gusts: NA
Location:  41.2385°N, 81.0761°W
Report Text: KPOV 192342Z AUTO 31005KT 10SM OVC024 M02/M07 A3025 RMK AO2 T10171068
Loading
Personal Weather Stations






























Interactive Weather Map New forecast layout! Learn more

10-Day Weather Forecast

Advertisements
Track Severe Weather on mobile